createdAt,value
2018-07-13T00:00:15.449Z,71.91
2018-07-13T00:02:44.540Z,72.70
2018-07-13T00:05:13.630Z,73.00
2018-07-13T00:07:42.775Z,73.56
2018-07-13T00:10:11.862Z,73.80
2018-07-13T00:12:40.939Z,74.45
2018-07-13T00:15:11.315Z,74.22
2018-07-13T00:17:40.533Z,74.10
2018-07-13T00:20:09.624Z,74.63
2018-07-13T00:22:38.712Z,74.67
2018-07-13T00:25:08.689Z,75.07
2018-07-13T00:27:37.782Z,74.95
2018-07-13T00:30:06.907Z,74.75
2018-07-13T00:32:36.019Z,75.74
2018-07-13T00:35:05.182Z,75.93
2018-07-13T00:37:34.231Z,76.13
2018-07-13T00:40:03.382Z,76.02
2018-07-13T00:42:32.484Z,76.48
2018-07-13T00:45:01.585Z,76.66
2018-07-13T00:47:30.693Z,76.53
2018-07-13T00:49:59.782Z,77.24
2018-07-13T00:52:28.857Z,77.25
2018-07-13T00:54:58.012Z,77.38
2018-07-13T00:57:27.098Z,77.76
2018-07-13T00:59:56.177Z,77.82
2018-07-13T01:02:44.221Z,77.64
2018-07-13T01:05:15.866Z,77.88
2018-07-13T01:07:44.999Z,78.63
2018-07-13T01:10:14.130Z,79.04
2018-07-13T01:12:43.238Z,79.13
2018-07-13T01:15:12.817Z,79.14
2018-07-13T01:17:42.051Z,79.26
2018-07-13T01:20:11.156Z,79.40
2018-07-13T01:22:40.386Z,79.44
2018-07-13T01:25:09.576Z,79.74
2018-07-13T01:27:38.673Z,80.70
2018-07-13T01:30:07.951Z,80.53
2018-07-13T01:32:37.235Z,80.69
2018-07-13T01:35:06.342Z,81.32
2018-07-13T01:37:35.466Z,81.58
2018-07-13T01:40:04.590Z,81.10
2018-07-13T01:42:33.728Z,81.55
2018-07-13T01:45:02.820Z,81.60
2018-07-13T01:47:31.921Z,81.59
2018-07-13T01:50:01.013Z,81.75
2018-07-13T01:52:30.116Z,82.12
2018-07-13T01:54:59.177Z,81.73
2018-07-13T01:57:28.257Z,82.39
2018-07-13T01:59:57.357Z,82.23
2018-07-13T02:02:26.523Z,82.33
2018-07-13T02:04:55.623Z,82.04
2018-07-13T02:07:24.729Z,82.07
2018-07-13T02:09:55.106Z,82.11
2018-07-13T02:12:24.212Z,81.94
2018-07-13T02:14:53.587Z,81.52
2018-07-13T02:17:23.079Z,81.82
2018-07-13T02:19:56.257Z,82.40
2018-07-13T02:22:25.671Z,82.53
2018-07-13T02:24:54.793Z,82.68
2018-07-13T02:27:23.854Z,82.95
2018-07-13T02:29:52.920Z,83.44
2018-07-13T02:32:22.020Z,83.49
2018-07-13T02:34:51.077Z,83.28
2018-07-13T02:37:20.164Z,83.46
2018-07-13T02:39:49.231Z,83.81
2018-07-13T02:42:18.346Z,83.95
2018-07-13T02:44:47.460Z,84.05
2018-07-13T02:47:16.561Z,83.67
2018-07-13T02:49:45.661Z,83.83
2018-07-13T02:52:14.776Z,83.61
2018-07-13T02:54:43.875Z,83.45
2018-07-13T02:57:13.003Z,83.22
2018-07-13T02:59:42.103Z,83.56
2018-07-13T03:02:11.224Z,83.68
2018-07-13T03:04:40.301Z,83.31
2018-07-13T03:07:09.383Z,83.76
2018-07-13T03:09:38.445Z,83.78
2018-07-13T03:12:07.562Z,83.58
2018-07-13T03:14:36.683Z,83.97
2018-07-13T03:17:05.783Z,84.19
2018-07-13T03:19:34.896Z,84.13
2018-07-13T03:22:04.062Z,83.92
2018-07-13T03:24:33.175Z,84.18
2018-07-13T03:27:02.329Z,84.48
2018-07-13T03:29:31.479Z,84.33
2018-07-13T03:32:00.607Z,84.81
2018-07-13T03:34:29.775Z,84.76
2018-07-13T03:36:58.845Z,84.74
2018-07-13T03:41:50.043Z,84.97
2018-07-13T03:44:19.123Z,85.46
2018-07-13T03:46:48.342Z,85.75
2018-07-13T03:49:17.445Z,86.10
2018-07-13T03:51:46.532Z,85.92
2018-07-13T03:54:15.733Z,86.29
2018-07-13T03:56:44.782Z,85.81
2018-07-13T03:59:13.837Z,85.50
2018-07-13T04:01:43.125Z,86.06
2018-07-13T04:04:12.237Z,86.05
2018-07-13T04:06:41.300Z,86.06
2018-07-13T04:09:11.339Z,86.68
2018-07-13T04:11:40.496Z,86.40
2018-07-13T04:14:09.965Z,86.48
2018-07-13T04:16:39.096Z,86.49
2018-07-13T04:19:08.198Z,86.74
2018-07-13T04:21:37.281Z,86.73
2018-07-13T04:24:06.435Z,86.69
2018-07-13T04:26:35.595Z,86.22
2018-07-13T04:29:04.730Z,86.63
2018-07-13T04:31:33.876Z,86.95
2018-07-13T04:34:02.996Z,86.71
2018-07-13T04:36:32.092Z,85.96
2018-07-13T04:39:01.139Z,86.03
2018-07-13T04:41:30.229Z,86.23
2018-07-13T04:43:59.333Z,86.33
2018-07-13T04:46:28.449Z,85.96
2018-07-13T04:48:57.581Z,85.99
2018-07-13T04:51:26.705Z,86.56
2018-07-13T04:53:55.792Z,86.06
2018-07-13T04:56:24.906Z,86.12
2018-07-13T04:58:54.063Z,85.79
2018-07-13T05:01:23.205Z,86.00
2018-07-13T05:03:52.406Z,85.78
2018-07-13T05:06:21.599Z,86.09
2018-07-13T05:08:50.671Z,86.09
2018-07-13T05:11:19.798Z,85.59
2018-07-13T05:13:48.921Z,85.42
2018-07-13T05:16:18.081Z,85.85
2018-07-13T05:18:47.315Z,85.45
2018-07-13T05:21:16.439Z,85.61
2018-07-13T05:23:45.583Z,85.16
2018-07-13T05:26:15.397Z,85.15
2018-07-13T05:28:44.475Z,84.74
2018-07-13T05:31:14.156Z,84.82
2018-07-13T05:33:43.565Z,84.34
2018-07-13T05:36:12.970Z,84.22
2018-07-13T05:38:42.892Z,83.85
2018-07-13T05:41:13.870Z,83.35
2018-07-13T05:43:43.907Z,83.10
2018-07-13T05:46:14.106Z,82.85
2018-07-13T05:48:43.333Z,82.93
2018-07-13T05:51:13.212Z,82.60
2018-07-13T05:53:43.072Z,82.69
2018-07-13T05:56:13.311Z,82.27
2018-07-13T05:58:43.742Z,82.44
2018-07-13T06:01:13.765Z,82.22
2018-07-13T06:03:44.167Z,81.73
2018-07-13T06:06:15.493Z,81.88
2018-07-13T06:08:45.014Z,81.73
2018-07-13T06:11:15.470Z,80.91
2018-07-13T06:13:44.600Z,81.03
2018-07-13T06:16:14.077Z,80.74
2018-07-13T06:18:43.183Z,80.70
2018-07-13T06:21:12.287Z,80.62
2018-07-13T06:23:41.394Z,78.94
2018-07-13T06:26:10.495Z,79.72
2018-07-13T06:28:39.590Z,78.80
2018-07-13T06:31:08.908Z,78.24
2018-07-13T06:33:38.000Z,78.32
2018-07-13T06:36:07.148Z,78.47
2018-07-13T06:38:36.309Z,78.29
2018-07-13T06:41:05.462Z,77.53
2018-07-13T06:43:34.569Z,76.61
2018-07-13T06:46:03.673Z,76.37
2018-07-13T06:48:32.821Z,75.49
2018-07-13T06:51:01.895Z,75.16
2018-07-13T06:53:31.010Z,73.37
2018-07-13T06:56:00.090Z,72.34
2018-07-13T06:58:40.439Z,71.06
2018-07-13T07:01:09.970Z,69.81
2018-07-13T07:04:47.934Z,67.40
2018-07-13T07:07:19.601Z,67.63
2018-07-13T07:09:50.009Z,66.00
2018-07-13T07:13:03.126Z,66.07
2018-07-13T07:15:32.226Z,64.98
2018-07-13T07:18:01.357Z,64.66
2018-07-13T07:20:30.460Z,63.58
2018-07-13T07:22:59.596Z,63.43
2018-07-13T07:25:28.716Z,63.81
2018-07-13T07:27:57.840Z,63.46
2018-07-13T07:30:26.983Z,62.93
2018-07-13T07:32:56.074Z,64.09
2018-07-13T07:35:25.193Z,63.00
2018-07-13T07:37:54.281Z,62.55
2018-07-13T07:40:23.417Z,60.74
2018-07-13T07:42:52.764Z,59.40
2018-07-13T07:45:21.929Z,55.65
2018-07-13T07:47:51.028Z,54.89
2018-07-13T07:50:20.123Z,54.95
2018-07-13T07:52:49.274Z,55.96
2018-07-13T07:55:18.405Z,56.10
2018-07-13T07:57:47.461Z,55.10
2018-07-13T08:00:16.563Z,54.79
2018-07-13T08:02:45.632Z,54.15
2018-07-13T08:05:14.725Z,54.38
2018-07-13T08:07:43.832Z,55.98
2018-07-13T08:10:12.922Z,55.76
2018-07-13T08:12:42.049Z,56.65
2018-07-13T08:15:11.154Z,57.84
2018-07-13T08:17:40.286Z,57.03
2018-07-13T08:20:09.405Z,56.31
2018-07-13T08:22:45.723Z,57.13
2018-07-13T08:25:15.298Z,57.61
2018-07-13T08:27:50.652Z,57.19
2018-07-13T08:30:31.176Z,56.90
2018-07-13T08:33:00.274Z,56.12
2018-07-13T08:35:29.312Z,55.99
2018-07-13T08:37:58.395Z,56.06
2018-07-13T08:40:27.517Z,55.94
2018-07-13T08:42:56.679Z,56.31
2018-07-13T08:45:25.793Z,56.87
2018-07-13T08:47:54.920Z,56.55
2018-07-13T08:50:24.028Z,55.36
2018-07-13T08:52:53.433Z,55.04
2018-07-13T08:55:22.567Z,53.97
2018-07-13T08:57:51.730Z,54.95
2018-07-13T09:00:20.960Z,55.14
2018-07-13T09:02:50.015Z,55.98
2018-07-13T09:05:19.150Z,56.02
2018-07-13T09:07:48.236Z,56.46
2018-07-13T09:10:17.399Z,56.12
2018-07-13T09:12:46.495Z,55.83
2018-07-13T09:15:15.633Z,55.32
2018-07-13T09:17:44.714Z,55.34
2018-07-13T09:20:14.371Z,55.19
2018-07-13T09:22:43.539Z,55.13
2018-07-13T09:25:12.961Z,55.41
2018-07-13T09:27:42.220Z,55.85
2018-07-13T09:30:12.186Z,55.46
2018-07-13T09:32:41.491Z,54.03
2018-07-13T09:35:10.749Z,53.61
2018-07-13T09:37:40.138Z,53.83
2018-07-13T09:40:09.291Z,54.58
2018-07-13T09:42:38.398Z,53.26
2018-07-13T09:45:07.506Z,52.57
2018-07-13T09:47:37.264Z,52.61
2018-07-13T09:50:06.703Z,52.27
2018-07-13T09:52:35.815Z,51.94
2018-07-13T09:55:04.957Z,51.97
2018-07-13T09:57:34.077Z,51.98
2018-07-13T10:00:03.204Z,52.03
2018-07-13T10:02:32.322Z,51.73
2018-07-13T10:05:01.443Z,50.20
2018-07-13T10:07:30.539Z,49.53
2018-07-13T10:09:59.710Z,49.23
2018-07-13T10:12:28.816Z,47.87
2018-07-13T10:14:57.979Z,47.35
2018-07-13T10:17:27.117Z,47.87
2018-07-13T10:19:56.226Z,47.44
2018-07-13T10:22:28.141Z,47.69
2018-07-13T10:24:59.754Z,46.67
2018-07-13T10:27:32.520Z,46.39
2018-07-13T10:30:02.875Z,47.00
2018-07-13T10:32:32.293Z,46.45
2018-07-13T10:35:02.546Z,47.24
2018-07-13T10:37:32.730Z,47.55
2018-07-13T10:40:01.858Z,47.86
2018-07-13T10:42:30.994Z,48.08
2018-07-13T10:45:00.093Z,47.69
2018-07-13T10:47:29.216Z,47.54
2018-07-13T10:49:58.282Z,46.52
2018-07-13T10:52:27.460Z,46.06
2018-07-13T10:54:56.573Z,46.36
2018-07-13T10:57:25.694Z,45.31
2018-07-13T10:59:54.779Z,46.02
2018-07-13T11:02:23.907Z,45.30
2018-07-13T11:04:52.988Z,45.27
2018-07-13T11:07:22.066Z,44.79
2018-07-13T11:09:51.180Z,44.20
2018-07-13T11:12:20.300Z,41.86
2018-07-13T11:14:49.403Z,42.18
2018-07-13T11:17:18.662Z,42.27
2018-07-13T11:19:47.763Z,41.82
2018-07-13T11:22:17.018Z,41.62
2018-07-13T11:24:46.736Z,40.55
2018-07-13T11:27:15.811Z,41.55
2018-07-13T11:29:44.915Z,41.22
2018-07-13T11:32:14.027Z,39.92
2018-07-13T11:34:43.115Z,41.52
2018-07-13T11:37:12.602Z,42.03
2018-07-13T11:39:41.493Z,41.13
2018-07-13T11:42:10.647Z,41.17
2018-07-13T11:44:39.845Z,38.82
2018-07-13T11:47:09.090Z,38.56
2018-07-13T11:49:38.174Z,38.21
2018-07-13T11:52:07.351Z,37.66
2018-07-13T11:54:36.416Z,36.98
2018-07-13T11:57:05.498Z,36.20
2018-07-13T11:59:34.607Z,35.06
2018-07-13T12:02:03.674Z,34.16
2018-07-13T12:04:32.774Z,32.86
2018-07-13T12:07:01.871Z,32.22
2018-07-13T12:09:30.956Z,30.85
2018-07-13T12:12:00.038Z,31.19
2018-07-13T12:14:29.234Z,31.00
2018-07-13T12:16:58.389Z,31.98
2018-07-13T12:19:27.586Z,30.65
2018-07-13T12:21:56.682Z,31.15
2018-07-13T12:24:25.762Z,30.98
2018-07-13T12:26:55.813Z,28.82
2018-07-13T12:29:24.847Z,30.02
2018-07-13T12:31:53.922Z,29.08
2018-07-13T12:34:22.969Z,29.25
2018-07-13T12:36:52.052Z,28.93
2018-07-13T12:39:21.294Z,29.04
2018-07-13T12:41:50.576Z,29.51
2018-07-13T12:44:19.644Z,28.06
2018-07-13T12:46:48.728Z,27.86
2018-07-13T12:49:17.929Z,27.81
2018-07-13T12:51:46.995Z,27.29
2018-07-13T12:54:16.273Z,27.36
2018-07-13T12:56:45.332Z,27.84
2018-07-13T12:59:14.404Z,27.76
2018-07-13T13:01:43.458Z,27.24
2018-07-13T13:04:12.541Z,27.76
2018-07-13T13:06:41.849Z,27.81
2018-07-13T13:09:10.924Z,28.27
2018-07-13T13:11:40.013Z,28.83
2018-07-13T13:14:09.114Z,28.46
2018-07-13T13:16:38.197Z,26.91
2018-07-13T13:19:07.289Z,26.75
2018-07-13T13:21:36.468Z,25.58
2018-07-13T13:24:05.444Z,25.82
2018-07-13T13:26:34.541Z,25.82
2018-07-13T13:29:03.609Z,24.79
2018-07-13T13:31:32.709Z,25.02
2018-07-13T13:34:01.765Z,24.20
2018-07-13T13:36:30.867Z,24.19
2018-07-13T13:38:59.921Z,24.46
2018-07-13T13:41:29.054Z,24.28
2018-07-13T13:43:58.121Z,25.14
2018-07-13T13:46:27.283Z,25.33
2018-07-13T13:48:56.391Z,24.64
2018-07-13T13:51:25.432Z,24.55
2018-07-13T13:53:54.527Z,24.87
2018-07-13T13:56:23.629Z,24.22
2018-07-13T13:58:52.888Z,23.87
2018-07-13T14:01:21.968Z,24.06
2018-07-13T14:03:51.089Z,23.39
2018-07-13T14:06:20.159Z,24.57
2018-07-13T14:08:49.233Z,25.00
2018-07-13T14:11:18.537Z,24.71
2018-07-13T14:13:47.619Z,24.95
2018-07-13T14:16:16.704Z,23.75
2018-07-13T14:18:45.781Z,23.04
2018-07-13T14:21:14.898Z,22.06
2018-07-13T14:23:43.958Z,22.02
2018-07-13T14:26:13.143Z,21.51
2018-07-13T14:28:42.227Z,21.57
2018-07-13T14:31:11.341Z,20.98
2018-07-13T14:33:40.453Z,21.57
2018-07-13T14:36:09.572Z,21.49
2018-07-13T14:38:38.703Z,21.61
2018-07-13T14:41:07.807Z,21.59
2018-07-13T14:43:36.951Z,21.84
2018-07-13T14:46:06.050Z,20.88
2018-07-13T14:48:35.166Z,21.72
2018-07-13T14:51:04.207Z,21.30
2018-07-13T14:53:33.384Z,20.77
2018-07-13T14:56:02.431Z,20.77
2018-07-13T14:58:31.574Z,20.57
2018-07-13T15:01:00.680Z,21.14
2018-07-13T15:03:29.775Z,21.31
2018-07-13T15:05:58.919Z,20.70
2018-07-13T15:08:27.923Z,20.95
2018-07-13T15:10:57.022Z,20.79
2018-07-13T15:13:26.121Z,20.51
2018-07-13T15:15:55.191Z,19.99
2018-07-13T15:18:24.296Z,20.45
2018-07-13T15:20:53.393Z,21.18
2018-07-13T15:23:22.444Z,20.39
2018-07-13T15:25:51.507Z,20.42
2018-07-13T15:28:20.590Z,20.57
2018-07-13T15:30:49.695Z,20.84
2018-07-13T15:33:18.765Z,20.40
2018-07-13T15:35:47.868Z,21.82
2018-07-13T15:38:16.927Z,21.01
2018-07-13T15:40:46.106Z,21.73
2018-07-13T15:43:15.219Z,21.62
2018-07-13T15:45:44.383Z,21.16
2018-07-13T15:48:13.433Z,22.27
2018-07-13T15:50:42.479Z,22.66
2018-07-13T15:53:11.604Z,22.23
2018-07-13T15:55:45.912Z,23.19
2018-07-13T15:58:15.039Z,24.23
2018-07-13T16:00:44.285Z,24.06
2018-07-13T16:03:13.334Z,23.61
2018-07-13T16:05:42.537Z,23.86
2018-07-13T16:08:11.625Z,23.97
2018-07-13T16:10:40.723Z,24.82
2018-07-13T16:13:09.957Z,24.88
2018-07-13T16:15:39.001Z,25.73
2018-07-13T16:18:08.151Z,25.47
2018-07-13T16:20:37.209Z,25.82
2018-07-13T16:23:06.591Z,26.31
2018-07-13T16:25:35.754Z,26.35
2018-07-13T16:28:04.865Z,26.94
2018-07-13T16:30:33.979Z,27.35
2018-07-13T16:33:03.044Z,27.52
2018-07-13T16:35:32.111Z,27.34
2018-07-13T16:38:01.195Z,27.33
2018-07-13T16:40:30.370Z,27.65
2018-07-13T16:42:59.456Z,27.25
2018-07-13T16:45:28.572Z,27.19
2018-07-13T16:47:57.634Z,27.62
2018-07-13T16:50:26.810Z,28.32
2018-07-13T16:52:55.902Z,28.06
2018-07-13T16:55:24.991Z,28.18
2018-07-13T16:57:54.063Z,28.50
2018-07-13T17:00:23.339Z,28.36
2018-07-13T17:02:52.447Z,27.77
2018-07-13T17:05:21.530Z,28.51
2018-07-13T17:07:50.752Z,28.57
2018-07-13T17:10:19.832Z,28.79
2018-07-13T17:12:48.874Z,28.46
2018-07-13T17:15:17.977Z,28.48
2018-07-13T17:17:47.055Z,28.35
2018-07-13T17:20:16.165Z,29.07
2018-07-13T17:22:45.429Z,28.67
2018-07-13T17:25:14.792Z,28.70
2018-07-13T17:27:43.950Z,29.11
2018-07-13T17:30:12.995Z,28.72
2018-07-13T17:32:42.095Z,29.26
2018-07-13T17:35:11.286Z,28.61
2018-07-13T17:37:40.376Z,28.88
2018-07-13T17:40:09.630Z,29.18
2018-07-13T17:42:38.755Z,29.57
2018-07-13T17:45:09.804Z,29.14
2018-07-13T17:47:38.875Z,29.82
2018-07-13T17:50:07.999Z,29.63
2018-07-13T17:52:37.152Z,29.72
2018-07-13T17:55:06.255Z,29.83
2018-07-13T17:57:35.383Z,29.74
2018-07-13T18:00:04.614Z,29.70
2018-07-13T18:02:33.703Z,29.66
2018-07-13T18:05:03.258Z,29.86
2018-07-13T18:07:32.441Z,30.43
2018-07-13T18:10:01.499Z,30.83
2018-07-13T18:12:30.787Z,31.55
2018-07-13T18:14:59.909Z,31.17
2018-07-13T18:17:29.148Z,31.32
2018-07-13T18:20:00.038Z,31.72
2018-07-13T18:22:29.492Z,32.18
2018-07-13T18:24:58.588Z,32.01
2018-07-13T18:27:28.553Z,32.25
2018-07-13T18:29:57.889Z,32.11
2018-07-13T18:32:27.013Z,31.88
2018-07-13T18:34:56.125Z,32.39
2018-07-13T18:37:25.335Z,32.44
2018-07-13T18:39:54.429Z,32.76
2018-07-13T18:42:23.672Z,32.77
2018-07-13T18:44:52.999Z,33.05
2018-07-13T18:47:22.985Z,32.98
2018-07-13T18:49:52.153Z,33.77
2018-07-13T18:52:21.417Z,33.42
2018-07-13T18:54:50.522Z,33.25
2018-07-13T18:57:19.618Z,33.84
2018-07-13T18:59:48.731Z,33.59
2018-07-13T19:02:17.881Z,34.21
2018-07-13T19:04:46.971Z,34.40
2018-07-13T19:07:16.149Z,34.50
2018-07-13T19:09:45.263Z,35.14
2018-07-13T19:12:14.336Z,35.14
2018-07-13T19:14:44.297Z,35.41
2018-07-13T19:17:13.405Z,35.83
2018-07-13T19:19:42.491Z,36.07
2018-07-13T19:22:11.585Z,35.53
2018-07-13T19:24:40.681Z,35.99
2018-07-13T19:27:09.911Z,36.12
2018-07-13T19:29:38.982Z,36.78
2018-07-13T19:32:08.077Z,36.97
2018-07-13T19:34:37.190Z,37.20
2018-07-13T19:37:06.562Z,37.16
2018-07-13T19:39:35.692Z,37.67
2018-07-13T19:42:04.817Z,37.55
2018-07-13T19:44:33.923Z,37.15
2018-07-13T19:47:03.015Z,37.57
2018-07-13T19:49:32.086Z,37.74
2018-07-13T19:52:01.223Z,37.37
2018-07-13T19:54:30.465Z,37.87
2018-07-13T19:56:59.781Z,38.65
2018-07-13T19:59:29.039Z,38.97
2018-07-13T20:01:58.783Z,39.22
2018-07-13T20:04:27.887Z,39.10
2018-07-13T20:06:57.005Z,39.13
2018-07-13T20:09:26.105Z,39.07
2018-07-13T20:11:55.201Z,38.64
2018-07-13T20:14:25.244Z,38.76
2018-07-13T20:16:54.359Z,39.15
2018-07-13T20:19:23.482Z,39.50
2018-07-13T20:21:52.578Z,39.45
2018-07-13T20:24:21.690Z,39.61
2018-07-13T20:26:50.781Z,39.62
2018-07-13T20:29:19.875Z,40.12
2018-07-13T20:31:48.952Z,40.85
2018-07-13T20:34:19.250Z,40.79
2018-07-13T20:36:49.601Z,41.35
2018-07-13T20:39:19.771Z,41.48
2018-07-13T20:41:49.883Z,41.20
2018-07-13T20:44:20.112Z,42.09
2018-07-13T20:46:50.219Z,42.44
2018-07-13T20:49:19.410Z,42.17
2018-07-13T20:51:49.277Z,42.56
2018-07-13T20:54:18.565Z,43.16
2018-07-13T20:56:47.563Z,43.59
2018-07-13T20:59:16.671Z,43.54
2018-07-13T21:01:45.834Z,43.96
2018-07-13T21:04:14.941Z,44.23
2018-07-13T21:06:44.043Z,44.36
2018-07-13T21:09:13.116Z,44.20
2018-07-13T21:11:42.291Z,44.38
2018-07-13T21:14:11.865Z,44.61
2018-07-13T21:16:41.001Z,44.64
2018-07-13T21:19:10.089Z,45.31
2018-07-13T21:21:39.177Z,45.30
2018-07-13T21:24:08.266Z,45.37
2018-07-13T21:26:37.721Z,45.25
2018-07-13T21:29:07.151Z,45.84
2018-07-13T21:31:37.343Z,46.01
2018-07-13T21:34:06.764Z,46.28
2018-07-13T21:36:36.190Z,46.56
2018-07-13T21:39:06.371Z,47.32
2018-07-13T21:41:36.811Z,47.43
2018-07-13T21:44:06.371Z,48.04
2018-07-13T21:46:35.907Z,47.71
2018-07-13T21:49:05.511Z,48.35
2018-07-13T21:51:35.298Z,48.62
2018-07-13T21:54:04.430Z,48.94
2018-07-13T21:56:33.785Z,49.52
2018-07-13T21:59:03.573Z,49.19
2018-07-13T22:01:33.477Z,49.80
2018-07-13T22:04:04.427Z,49.85
2018-07-13T22:06:36.487Z,50.23
2018-07-13T22:09:07.097Z,50.46
2018-07-13T22:11:37.129Z,50.90
2018-07-13T22:14:06.565Z,50.78
2018-07-13T22:16:35.887Z,50.85
2018-07-13T22:19:05.175Z,51.05
2018-07-13T22:21:34.293Z,51.41
2018-07-13T22:24:03.413Z,51.44
2018-07-13T22:26:33.397Z,51.92
2018-07-13T22:29:03.514Z,52.15
2018-07-13T22:31:32.601Z,52.35
2018-07-13T22:34:01.673Z,52.77
2018-07-13T22:36:30.752Z,53.50
2018-07-13T22:38:59.889Z,53.30
2018-07-13T22:41:28.929Z,53.94
2018-07-13T22:43:58.030Z,53.77
2018-07-13T22:46:27.195Z,54.24
2018-07-13T22:48:56.305Z,54.80
2018-07-13T22:51:25.369Z,54.91
2018-07-13T22:53:54.408Z,55.02
2018-07-13T22:56:23.507Z,55.29
2018-07-13T22:58:52.595Z,55.53
2018-07-13T23:01:21.721Z,55.75
2018-07-13T23:03:50.840Z,55.96
2018-07-13T23:06:19.918Z,55.90
2018-07-13T23:08:49.052Z,56.00
2018-07-13T23:11:18.165Z,56.35
2018-07-13T23:13:47.244Z,56.49
2018-07-13T23:16:16.342Z,56.67
2018-07-13T23:18:45.410Z,56.60
2018-07-13T23:21:14.490Z,56.83
2018-07-13T23:23:43.642Z,57.09
2018-07-13T23:26:12.721Z,57.09
2018-07-13T23:28:41.843Z,57.43
2018-07-13T23:31:10.912Z,57.38
2018-07-13T23:33:40.140Z,57.68
2018-07-13T23:36:09.235Z,57.28
2018-07-13T23:38:38.306Z,57.93
2018-07-13T23:41:07.428Z,58.29
2018-07-13T23:43:36.491Z,58.09
2018-07-13T23:46:05.557Z,58.40
2018-07-13T23:48:34.645Z,58.67
2018-07-13T23:51:03.704Z,58.73
2018-07-13T23:53:32.806Z,59.27
2018-07-13T23:56:01.862Z,59.26
2018-07-13T23:58:31.549Z,59.38
